createdAt,value
2019-02-15T00:01:25.991Z,4.43
2019-02-15T00:03:55.755Z,4.44
2019-02-15T00:06:25.580Z,4.40
2019-02-15T00:08:55.434Z,4.46
2019-02-15T00:11:25.329Z,4.49
2019-02-15T00:13:55.219Z,4.46
2019-02-15T00:16:25.089Z,4.48
2019-02-15T00:19:20.210Z,4.44
2019-02-15T00:21:51.515Z,4.42
2019-02-15T00:24:21.440Z,4.57
2019-02-15T00:26:51.552Z,4.50
2019-02-15T00:29:21.291Z,4.38
2019-02-15T00:31:52.396Z,4.38
2019-02-15T00:34:22.199Z,4.47
2019-02-15T00:36:51.896Z,4.41
2019-02-15T00:39:21.540Z,4.44
2019-02-15T00:41:51.236Z,4.39
2019-02-15T00:44:21.093Z,4.22
2019-02-15T00:47:21.738Z,4.39
2019-02-15T00:49:58.502Z,4.42
2019-02-15T00:52:44.554Z,4.48
2019-02-15T00:55:32.398Z,4.35
2019-02-15T00:58:29.728Z,4.34
2019-02-15T01:01:36.623Z,4.41
2019-02-15T01:04:25.345Z,4.38
2019-02-15T01:07:03.981Z,4.33
2019-02-15T01:10:04.697Z,4.33
2019-02-15T01:12:43.911Z,4.34
2019-02-15T01:15:13.808Z,4.30
2019-02-15T01:17:43.625Z,4.34
2019-02-15T01:20:13.386Z,4.36
2019-02-15T01:22:43.172Z,4.29
2019-02-15T01:25:13.139Z,4.28
2019-02-15T01:27:51.706Z,4.28
2019-02-15T01:30:34.116Z,4.24
2019-02-15T01:33:20.829Z,4.31
2019-02-15T01:36:08.035Z,4.28
2019-02-15T01:38:59.907Z,4.23
2019-02-15T01:41:46.399Z,4.27
2019-02-15T01:44:25.381Z,4.27
2019-02-15T01:47:05.617Z,4.25
2019-02-15T01:49:35.510Z,4.20
2019-02-15T01:52:05.398Z,4.24
2019-02-15T01:54:35.331Z,4.28
2019-02-15T01:57:05.181Z,4.30
2019-02-15T01:59:35.262Z,4.29
2019-02-15T02:02:04.960Z,4.33
2019-02-15T02:04:36.220Z,4.28
2019-02-15T02:07:06.017Z,4.33
2019-02-15T02:09:35.963Z,4.31
2019-02-15T02:12:06.102Z,4.32
2019-02-15T02:14:35.902Z,4.27
2019-02-15T02:17:05.913Z,4.25
2019-02-15T02:19:35.855Z,4.24
2019-02-15T02:22:05.520Z,4.22
2019-02-15T02:24:35.305Z,4.21
2019-02-15T02:27:05.165Z,4.22
2019-02-15T02:29:34.975Z,4.22
2019-02-15T02:32:05.045Z,4.23
2019-02-15T02:34:35.107Z,4.21
2019-02-15T02:37:05.041Z,4.21
2019-02-15T02:39:34.882Z,4.22
2019-02-15T02:42:04.698Z,4.16
2019-02-15T02:44:34.362Z,4.14
2019-02-15T02:47:03.992Z,4.12
2019-02-15T02:49:34.615Z,4.13
2019-02-15T02:52:04.531Z,4.12
2019-02-15T02:54:34.231Z,4.07
2019-02-15T02:57:04.105Z,4.01
2019-02-15T02:59:33.962Z,4.05
2019-02-15T03:02:03.767Z,4.00
2019-02-15T03:04:33.545Z,3.97
2019-02-15T03:07:03.426Z,4.00
2019-02-15T03:09:33.376Z,3.96
2019-02-15T03:12:03.139Z,3.99
2019-02-15T03:14:32.870Z,3.99
2019-02-15T03:17:02.805Z,3.99
2019-02-15T03:19:32.775Z,4.00
2019-02-15T03:22:02.388Z,3.92
2019-02-15T03:24:32.117Z,3.88
2019-02-15T03:27:02.177Z,3.88
2019-02-15T03:29:32.343Z,3.88
2019-02-15T03:32:01.973Z,3.87
2019-02-15T03:34:31.847Z,3.87
2019-02-15T03:37:23.547Z,3.89
2019-02-15T03:39:56.456Z,3.86
2019-02-15T03:42:26.205Z,3.91
2019-02-15T03:44:55.918Z,3.89
2019-02-15T03:47:27.957Z,3.89
2019-02-15T03:49:57.608Z,3.88
2019-02-15T03:52:27.379Z,3.84
2019-02-15T03:54:57.140Z,3.85
2019-02-15T03:57:27.117Z,3.69
2019-02-15T03:59:56.885Z,3.87
2019-02-15T04:02:26.761Z,3.85
2019-02-15T04:04:56.709Z,3.86
2019-02-15T04:07:26.536Z,3.88
2019-02-15T04:09:56.423Z,3.90
2019-02-15T04:12:26.319Z,3.93
2019-02-15T04:14:56.644Z,3.94
2019-02-15T04:17:26.463Z,3.95
2019-02-15T04:19:56.295Z,3.95
2019-02-15T04:22:27.191Z,3.95
2019-02-15T04:24:56.939Z,3.96
2019-02-15T04:27:26.675Z,3.99
2019-02-15T04:29:57.727Z,4.02
2019-02-15T04:32:27.219Z,4.03
2019-02-15T04:34:56.901Z,4.02
2019-02-15T04:37:26.682Z,3.99
2019-02-15T04:39:56.331Z,4.01
2019-02-15T04:42:26.272Z,4.02
2019-02-15T04:44:56.113Z,4.00
2019-02-15T04:47:26.075Z,4.01
2019-02-15T04:49:55.908Z,3.97
2019-02-15T04:52:25.986Z,4.03
2019-02-15T04:54:55.845Z,4.05
2019-02-15T04:57:25.563Z,4.05
2019-02-15T04:59:56.745Z,4.03
2019-02-15T05:02:26.402Z,3.96
2019-02-15T05:04:56.221Z,3.85
2019-02-15T05:07:26.201Z,3.77
2019-02-15T05:09:56.072Z,3.73
2019-02-15T05:12:25.972Z,3.71
2019-02-15T05:14:55.831Z,3.73
2019-02-15T05:17:25.594Z,3.75
2019-02-15T05:19:55.553Z,3.82
2019-02-15T05:22:25.389Z,3.85
2019-02-15T05:24:55.066Z,3.88
2019-02-15T05:27:24.852Z,3.90
2019-02-15T05:29:54.719Z,3.91
2019-02-15T05:32:24.587Z,3.93
2019-02-15T05:34:54.397Z,3.97
2019-02-15T05:37:24.265Z,4.00
2019-02-15T05:39:54.046Z,4.02
2019-02-15T05:42:23.861Z,3.99
2019-02-15T05:45:03.257Z,4.00
2019-02-15T05:47:26.337Z,4.05
2019-02-15T05:49:56.050Z,4.01
2019-02-15T05:52:27.429Z,4.04
2019-02-15T05:54:57.334Z,4.06
2019-02-15T05:57:27.040Z,4.05
2019-02-15T05:59:57.010Z,4.06
2019-02-15T06:02:26.778Z,4.06
2019-02-15T06:04:56.620Z,4.08
2019-02-15T06:07:26.388Z,4.06
2019-02-15T06:09:56.218Z,4.07
2019-02-15T06:12:26.274Z,4.11
2019-02-15T06:14:56.126Z,4.14
2019-02-15T06:17:26.361Z,4.16
2019-02-15T06:19:56.252Z,4.21
2019-02-15T06:22:26.302Z,4.27
2019-02-15T06:24:56.113Z,4.33
2019-02-15T06:27:27.301Z,4.45
2019-02-15T06:29:57.071Z,4.50
2019-02-15T06:32:27.013Z,4.53
2019-02-15T06:34:56.942Z,4.62
2019-02-15T06:37:26.719Z,4.64
2019-02-15T06:39:56.758Z,4.77
2019-02-15T06:42:26.611Z,4.77
2019-02-15T06:44:56.360Z,4.88
2019-02-15T06:47:25.980Z,4.94
2019-02-15T06:49:55.844Z,4.96
2019-02-15T06:52:25.618Z,5.02
2019-02-15T06:54:55.329Z,5.04
2019-02-15T06:57:25.182Z,5.14
2019-02-15T07:00:12.781Z,5.12
2019-02-15T07:02:56.065Z,5.19
2019-02-15T07:05:28.708Z,5.32
2019-02-15T07:07:58.529Z,5.44
2019-02-15T07:10:28.312Z,5.34
2019-02-15T07:12:58.216Z,5.28
2019-02-15T07:15:33.781Z,5.36
2019-02-15T07:17:59.590Z,5.32
2019-02-15T07:20:29.409Z,5.26
2019-02-15T07:22:59.856Z,5.32
2019-02-15T07:25:29.645Z,5.25
2019-02-15T07:27:59.505Z,5.38
2019-02-15T07:30:30.520Z,5.26
2019-02-15T07:33:00.319Z,5.25
2019-02-15T07:35:30.148Z,5.42
2019-02-15T07:38:00.085Z,5.56
2019-02-15T07:40:29.964Z,5.42
2019-02-15T07:42:59.674Z,5.40
2019-02-15T07:45:29.425Z,5.38
2019-02-15T07:47:59.318Z,5.29
2019-02-15T07:50:29.319Z,5.30
2019-02-15T07:52:59.236Z,5.30
2019-02-15T07:55:28.994Z,5.29
2019-02-15T07:57:58.879Z,5.37
2019-02-15T08:00:28.972Z,5.42
2019-02-15T08:02:58.809Z,5.35
2019-02-15T08:05:28.764Z,5.33
2019-02-15T08:07:58.548Z,5.44
2019-02-15T08:10:28.236Z,5.47
2019-02-15T08:12:57.989Z,5.57
2019-02-15T08:15:35.980Z,5.50
2019-02-15T08:17:59.116Z,5.40
2019-02-15T08:20:28.755Z,5.47
2019-02-15T08:22:58.603Z,5.53
2019-02-15T08:25:28.467Z,5.47
2019-02-15T08:27:58.395Z,5.50
2019-02-15T08:30:29.439Z,5.60
2019-02-15T08:32:59.438Z,5.68
2019-02-15T08:35:29.473Z,5.71
2019-02-15T08:37:59.206Z,5.60
2019-02-15T08:40:28.881Z,5.56
2019-02-15T08:42:58.725Z,5.60
2019-02-15T08:45:28.732Z,5.59
2019-02-15T08:47:58.513Z,5.57
2019-02-15T08:50:28.258Z,5.63
2019-02-15T08:52:58.109Z,5.56
2019-02-15T08:55:27.877Z,5.45
2019-02-15T08:57:58.203Z,5.52
2019-02-15T09:00:28.150Z,5.53
2019-02-15T09:02:58.022Z,5.47
2019-02-15T09:05:28.985Z,5.56
2019-02-15T09:07:59.108Z,5.58
2019-02-15T09:10:29.012Z,5.67
2019-02-15T09:12:59.009Z,5.75
2019-02-15T09:15:28.734Z,5.66
2019-02-15T09:17:59.707Z,5.69
2019-02-15T09:20:29.623Z,5.64
2019-02-15T09:22:59.507Z,5.49
2019-02-15T09:25:29.684Z,5.49
2019-02-15T09:28:18.244Z,5.52
2019-02-15T09:30:52.012Z,5.47
2019-02-15T09:33:22.629Z,5.40
2019-02-15T09:35:52.370Z,5.44
2019-02-15T09:38:22.316Z,5.45
2019-02-15T09:40:52.278Z,5.44
2019-02-15T09:43:22.108Z,5.43
2019-02-15T09:45:51.949Z,5.52
2019-02-15T09:48:21.726Z,5.40
2019-02-15T09:50:51.673Z,5.35
2019-02-15T09:53:21.602Z,5.27
2019-02-15T09:55:51.381Z,5.29
2019-02-15T09:58:21.084Z,5.40
2019-02-15T10:00:51.013Z,5.43
2019-02-15T10:03:20.825Z,5.32
2019-02-15T10:05:51.058Z,5.50
2019-02-15T10:08:20.790Z,5.45
2019-02-15T10:10:50.716Z,5.46
2019-02-15T10:13:20.379Z,5.59
2019-02-15T10:15:50.142Z,5.63
2019-02-15T10:18:19.906Z,5.65
2019-02-15T10:20:49.823Z,5.47
2019-02-15T10:23:19.793Z,5.45
2019-02-15T10:25:49.567Z,5.39
2019-02-15T10:28:19.372Z,5.32
2019-02-15T10:30:49.119Z,5.37
2019-02-15T10:33:18.890Z,5.59
2019-02-15T10:35:48.795Z,5.48
2019-02-15T10:38:19.774Z,5.60
2019-02-15T10:40:49.683Z,5.74
2019-02-15T10:43:19.386Z,5.70
2019-02-15T10:45:50.436Z,5.69
2019-02-15T10:48:20.445Z,5.64
2019-02-15T10:50:50.252Z,5.78
2019-02-15T10:53:20.246Z,5.81
2019-02-15T10:55:50.109Z,5.78
2019-02-15T10:58:20.228Z,5.96
2019-02-15T11:00:50.177Z,5.94
2019-02-15T11:03:20.056Z,6.03
2019-02-15T11:05:49.962Z,6.06
2019-02-15T11:08:19.912Z,6.13
2019-02-15T11:10:49.630Z,6.14
2019-02-15T11:13:19.397Z,6.09
2019-02-15T11:15:49.219Z,6.11
2019-02-15T11:18:20.180Z,6.26
2019-02-15T11:20:50.090Z,6.08
2019-02-15T11:23:19.816Z,5.99
2019-02-15T11:25:49.846Z,5.98
2019-02-15T11:28:19.621Z,6.00
2019-02-15T11:30:49.650Z,5.96
2019-02-15T11:33:19.398Z,5.89
2019-02-15T11:35:49.213Z,5.86
2019-02-15T11:38:21.210Z,5.89
2019-02-15T11:40:51.068Z,6.16
2019-02-15T11:43:20.852Z,5.94
2019-02-15T11:45:50.865Z,6.04
2019-02-15T11:48:20.586Z,6.08
2019-02-15T11:50:50.436Z,5.97
2019-02-15T11:53:20.328Z,6.03
2019-02-15T11:55:50.129Z,5.89
2019-02-15T11:58:20.008Z,5.92
2019-02-15T12:00:49.652Z,6.13
2019-02-15T12:03:19.474Z,6.21
2019-02-15T12:05:49.240Z,6.27
2019-02-15T12:08:19.220Z,6.25
2019-02-15T12:10:49.017Z,6.41
2019-02-15T12:13:20.001Z,6.34
2019-02-15T12:15:49.876Z,6.27
2019-02-15T12:18:19.694Z,6.21
2019-02-15T12:20:49.690Z,6.17
2019-02-15T12:23:19.319Z,5.97
2019-02-15T12:25:49.151Z,5.81
2019-02-15T12:28:20.335Z,5.98
2019-02-15T12:30:50.195Z,6.04
2019-02-15T12:33:20.018Z,6.00
2019-02-15T12:35:51.070Z,6.10
2019-02-15T12:38:20.961Z,6.17
2019-02-15T12:40:50.701Z,6.18
2019-02-15T12:43:20.645Z,6.14
2019-02-15T12:45:50.856Z,6.01
2019-02-15T12:48:21.065Z,5.99
2019-02-15T12:50:51.307Z,6.00
2019-02-15T12:53:21.323Z,6.14
2019-02-15T12:55:51.109Z,6.05
2019-02-15T12:58:20.952Z,6.00
2019-02-15T13:00:50.879Z,5.95
2019-02-15T13:03:20.650Z,6.01
2019-02-15T13:05:50.585Z,5.94
2019-02-15T13:08:20.561Z,5.89
2019-02-15T13:10:50.340Z,5.76
2019-02-15T13:13:20.232Z,5.72
2019-02-15T13:15:50.001Z,5.70
2019-02-15T13:18:19.856Z,5.73
2019-02-15T13:20:49.672Z,5.72
2019-02-15T13:23:19.415Z,5.68
2019-02-15T13:25:49.621Z,5.71
2019-02-15T13:28:20.419Z,5.80
2019-02-15T13:30:51.483Z,5.80
2019-02-15T13:33:21.309Z,5.80
2019-02-15T13:35:51.125Z,5.64
2019-02-15T13:38:21.100Z,5.73
2019-02-15T13:40:51.051Z,5.97
2019-02-15T13:43:20.976Z,5.79
2019-02-15T13:45:50.834Z,5.88
2019-02-15T13:48:20.596Z,5.70
2019-02-15T13:50:50.518Z,5.71
2019-02-15T13:53:20.359Z,5.70
2019-02-15T13:55:50.221Z,5.71
2019-02-15T13:58:19.960Z,5.56
2019-02-15T14:00:49.907Z,5.78
2019-02-15T14:03:19.665Z,5.74
2019-02-15T14:05:49.619Z,5.70
2019-02-15T14:08:19.356Z,5.59
2019-02-15T14:10:49.025Z,5.49
2019-02-15T14:13:18.741Z,5.47
2019-02-15T14:15:48.618Z,5.54
2019-02-15T14:18:18.755Z,5.49
2019-02-15T14:20:48.603Z,5.55
2019-02-15T14:23:18.545Z,5.51
2019-02-15T14:25:48.306Z,5.41
2019-02-15T14:28:18.018Z,5.39
2019-02-15T14:30:49.204Z,5.51
2019-02-15T14:33:19.002Z,5.41
2019-02-15T14:35:49.017Z,5.33
2019-02-15T14:38:18.885Z,5.33
2019-02-15T14:40:48.760Z,5.36
2019-02-15T14:43:19.901Z,5.30
2019-02-15T14:45:49.790Z,5.37
2019-02-15T14:48:20.090Z,5.29
2019-02-15T14:50:49.997Z,5.28
2019-02-15T14:53:19.640Z,5.16
2019-02-15T14:55:49.346Z,5.14
2019-02-15T14:58:19.103Z,5.07
2019-02-15T15:00:48.887Z,4.96
2019-02-15T15:03:18.797Z,5.12
2019-02-15T15:05:48.786Z,5.04
2019-02-15T15:08:19.465Z,4.94
2019-02-15T15:10:49.437Z,4.96
2019-02-15T15:13:19.283Z,4.88
2019-02-15T15:15:49.200Z,4.78
2019-02-15T15:18:18.861Z,4.71
2019-02-15T15:20:48.737Z,4.68
2019-02-15T15:23:18.560Z,4.70
2019-02-15T15:25:48.493Z,4.61
2019-02-15T15:28:18.520Z,4.48
2019-02-15T15:30:48.315Z,4.41
2019-02-15T15:33:18.172Z,4.36
2019-02-15T15:35:48.053Z,4.39
2019-02-15T15:38:17.866Z,4.27
2019-02-15T15:40:49.023Z,4.28
2019-02-15T15:43:18.904Z,4.25
2019-02-15T15:45:48.724Z,4.21
2019-02-15T15:48:22.711Z,4.16
2019-02-15T15:50:51.418Z,4.15
2019-02-15T15:53:21.147Z,4.05
2019-02-15T15:55:50.897Z,4.06
2019-02-15T15:58:20.669Z,4.01
2019-02-15T16:00:50.584Z,3.95
2019-02-15T16:03:20.448Z,3.97
2019-02-15T16:05:50.221Z,3.90
2019-02-15T16:08:21.353Z,3.93
2019-02-15T16:10:51.531Z,3.88
2019-02-15T16:13:21.303Z,3.85
2019-02-15T16:15:51.152Z,3.83
2019-02-15T16:18:21.141Z,3.79
2019-02-15T16:20:50.950Z,3.77
2019-02-15T16:23:20.810Z,3.72
2019-02-15T16:25:50.457Z,3.69
2019-02-15T16:28:20.451Z,3.71
2019-02-15T16:30:50.091Z,3.77
2019-02-15T16:33:19.884Z,3.82
2019-02-15T16:35:49.661Z,3.88
2019-02-15T16:38:20.979Z,3.94
2019-02-15T16:40:51.001Z,3.88
2019-02-15T16:43:20.834Z,3.89
2019-02-15T16:45:50.717Z,3.90
2019-02-15T16:48:20.635Z,3.85
2019-02-15T16:50:50.412Z,3.85
2019-02-15T16:53:20.160Z,3.86
2019-02-15T16:55:50.096Z,3.96
2019-02-15T16:58:19.836Z,3.96
2019-02-15T17:00:50.138Z,4.00
2019-02-15T17:03:20.166Z,4.00
2019-02-15T17:05:49.995Z,4.04
2019-02-15T17:08:19.771Z,4.03
2019-02-15T17:10:49.690Z,4.11
2019-02-15T17:13:19.654Z,4.07
2019-02-15T17:15:49.409Z,4.02
2019-02-15T17:18:19.223Z,4.08
2019-02-15T17:20:49.180Z,4.03
2019-02-15T17:23:19.111Z,4.12
2019-02-15T17:25:48.990Z,4.07
2019-02-15T17:28:18.904Z,4.00
2019-02-15T17:30:49.954Z,3.99
2019-02-15T17:33:19.638Z,4.05
2019-02-15T17:35:49.370Z,4.11
2019-02-15T17:38:19.246Z,4.16
2019-02-15T17:40:49.906Z,4.31
2019-02-15T17:43:19.825Z,4.28
2019-02-15T17:45:49.793Z,4.35
2019-02-15T17:48:19.639Z,4.34
2019-02-15T17:50:49.267Z,4.40
2019-02-15T17:53:20.331Z,4.43
2019-02-15T17:55:50.437Z,4.47
2019-02-15T17:58:20.335Z,4.51
2019-02-15T18:00:50.006Z,4.54
2019-02-15T18:03:19.770Z,4.53
2019-02-15T18:05:49.587Z,4.55
2019-02-15T18:08:19.405Z,4.59
2019-02-15T18:10:49.422Z,4.64
2019-02-15T18:13:19.202Z,4.60
2019-02-15T18:15:49.061Z,4.64
2019-02-15T18:18:18.840Z,4.57
2019-02-15T18:20:48.701Z,4.51
2019-02-15T18:23:18.398Z,4.52
2019-02-15T18:25:48.278Z,4.47
2019-02-15T18:28:18.437Z,4.42
2019-02-15T18:30:48.357Z,4.43
2019-02-15T18:33:18.212Z,4.39
2019-02-15T18:35:48.140Z,4.25
2019-02-15T18:38:17.786Z,4.17
2019-02-15T18:40:48.949Z,4.15
2019-02-15T18:43:18.759Z,4.21
2019-02-15T18:45:48.552Z,4.15
2019-02-15T18:48:18.514Z,4.16
2019-02-15T18:50:48.185Z,4.19
2019-02-15T18:53:18.148Z,4.18
2019-02-15T18:55:48.026Z,4.19
2019-02-15T18:58:18.039Z,4.12
2019-02-15T19:00:47.921Z,4.06
2019-02-15T19:03:17.950Z,3.98
2019-02-15T19:05:47.792Z,3.98
2019-02-15T19:08:17.921Z,3.92
2019-02-15T19:10:48.031Z,3.89
2019-02-15T19:13:17.901Z,3.86
2019-02-15T19:15:47.862Z,3.86
2019-02-15T19:18:17.662Z,3.83
2019-02-15T19:20:47.298Z,3.76
2019-02-15T19:23:17.158Z,3.67
2019-02-15T19:25:46.947Z,3.70
2019-02-15T19:28:16.850Z,3.64
2019-02-15T19:30:46.760Z,3.52
2019-02-15T19:33:16.662Z,3.44
2019-02-15T19:35:46.415Z,3.50
2019-02-15T19:38:16.238Z,3.41
2019-02-15T19:40:46.118Z,3.49
2019-02-15T19:43:16.086Z,3.47
2019-02-15T19:45:46.121Z,3.48
2019-02-15T19:48:15.875Z,3.44
2019-02-15T19:50:45.751Z,3.42
2019-02-15T19:53:15.632Z,3.35
2019-02-15T19:55:45.311Z,3.28
2019-02-15T19:58:15.078Z,3.36
2019-02-15T20:00:44.746Z,3.63
2019-02-15T20:03:14.473Z,3.60
2019-02-15T20:05:44.317Z,3.61
2019-02-15T20:08:14.075Z,3.70
2019-02-15T20:10:43.918Z,3.65
2019-02-15T20:13:13.687Z,3.59
2019-02-15T20:15:43.405Z,3.59
2019-02-15T20:18:14.473Z,3.64
2019-02-15T20:20:44.372Z,3.71
2019-02-15T20:23:14.283Z,3.67
2019-02-15T20:25:45.258Z,3.73
2019-02-15T20:28:15.041Z,3.76
2019-02-15T20:30:44.852Z,3.65
2019-02-15T20:33:15.283Z,3.69
2019-02-15T20:35:45.375Z,3.62
2019-02-15T20:38:15.143Z,3.61
2019-02-15T20:40:44.963Z,3.53
2019-02-15T20:43:14.853Z,3.58
2019-02-15T20:45:44.577Z,3.52
2019-02-15T20:48:14.439Z,3.55
2019-02-15T20:50:44.299Z,3.59
2019-02-15T20:53:14.004Z,3.68
2019-02-15T20:55:45.157Z,3.71
2019-02-15T20:58:14.979Z,3.70
2019-02-15T21:00:45.099Z,3.77
2019-02-15T21:03:15.044Z,3.61
2019-02-15T21:05:44.800Z,3.66
2019-02-15T21:08:14.529Z,3.60
2019-02-15T21:10:44.421Z,3.66
2019-02-15T21:13:20.224Z,3.64
2019-02-15T21:15:46.954Z,3.61
2019-02-15T21:18:16.767Z,3.57
2019-02-15T21:20:46.680Z,3.55
2019-02-15T21:23:16.614Z,3.72
2019-02-15T21:25:46.397Z,3.66
2019-02-15T21:28:16.224Z,3.80
2019-02-15T21:30:48.101Z,3.79
2019-02-15T21:33:18.299Z,3.17
2019-02-15T21:35:48.451Z,3.68
2019-02-15T21:38:18.288Z,3.72
2019-02-15T21:40:48.299Z,3.76
2019-02-15T21:43:18.173Z,3.63
2019-02-15T21:45:48.092Z,3.86
2019-02-15T21:48:18.027Z,3.80
2019-02-15T21:50:47.853Z,3.54
2019-02-15T21:53:17.758Z,3.62
2019-02-15T21:55:47.610Z,4.05
2019-02-15T21:58:17.505Z,4.21
2019-02-15T22:00:47.283Z,4.19
2019-02-15T22:03:17.311Z,4.36
2019-02-15T22:05:47.168Z,4.32
2019-02-15T22:08:16.942Z,4.23
2019-02-15T22:10:46.737Z,4.14
2019-02-15T22:13:17.830Z,4.14
2019-02-15T22:15:47.692Z,4.21
2019-02-15T22:18:17.434Z,4.14
2019-02-15T22:20:47.268Z,4.13
2019-02-15T22:23:17.043Z,4.04
2019-02-15T22:25:47.072Z,4.10
2019-02-15T22:28:17.045Z,4.11
2019-02-15T22:30:46.991Z,4.17
2019-02-15T22:33:16.639Z,4.19
2019-02-15T22:35:46.382Z,4.18
2019-02-15T22:38:16.137Z,4.21
2019-02-15T22:40:46.864Z,4.27
2019-02-15T22:43:21.787Z,4.25
2019-02-15T22:45:51.516Z,4.31
2019-02-15T22:48:21.391Z,4.24
2019-02-15T22:50:51.250Z,4.25
2019-02-15T22:53:21.062Z,4.20
2019-02-15T22:55:50.816Z,4.26
2019-02-15T22:58:20.487Z,4.21
2019-02-15T23:00:58.329Z,4.22
2019-02-15T23:03:28.428Z,4.36
2019-02-15T23:05:58.668Z,4.31
2019-02-15T23:08:28.440Z,4.28
2019-02-15T23:10:58.356Z,4.30
2019-02-15T23:13:28.226Z,4.34
2019-02-15T23:15:57.885Z,4.38
2019-02-15T23:18:27.726Z,4.33
2019-02-15T23:20:58.990Z,4.29
2019-02-15T23:23:28.885Z,4.29
2019-02-15T23:25:58.581Z,4.29
2019-02-15T23:28:28.621Z,4.28
2019-02-15T23:30:58.608Z,4.30
2019-02-15T23:33:28.340Z,4.24
2019-02-15T23:35:58.217Z,4.31
2019-02-15T23:38:27.951Z,4.21
2019-02-15T23:40:57.786Z,4.20
2019-02-15T23:43:27.721Z,4.25
2019-02-15T23:45:57.511Z,4.43
2019-02-15T23:48:27.337Z,4.21
2019-02-15T23:50:57.264Z,4.23
2019-02-15T23:53:27.149Z,4.20
2019-02-15T23:55:57.031Z,4.23
2019-02-15T23:58:26.874Z,4.18
